sensor_id;sensor_type;location;lat;lon;timestamp;P1;durP1;ratioP1;P2;durP2;ratioP2
30127;SDS011;16942;53.196;6.592;2023-05-21T00:01:01;6.03;;;3.40;;
30127;SDS011;16942;53.196;6.592;2023-05-21T00:03:27;4.47;;;3.63;;
30127;SDS011;16942;53.196;6.592;2023-05-21T00:05:55;4.97;;;3.93;;
30127;SDS011;16942;53.196;6.592;2023-05-21T00:08:21;5.33;;;3.77;;
30127;SDS011;16942;53.196;6.592;2023-05-21T00:10:47;6.97;;;3.90;;
30127;SDS011;16942;53.196;6.592;2023-05-21T00:13:13;7.67;;;3.73;;
30127;SDS011;16942;53.196;6.592;2023-05-21T00:15:39;5.23;;;3.80;;
30127;SDS011;16942;53.196;6.592;2023-05-21T00:18:05;5.07;;;4.10;;
30127;SDS011;16942;53.196;6.592;2023-05-21T00:20:31;5.17;;;4.03;;
30127;SDS011;16942;53.196;6.592;2023-05-21T00:22:58;4.63;;;3.30;;
30127;SDS011;16942;53.196;6.592;2023-05-21T00:25:26;7.10;;;3.80;;
30127;SDS011;16942;53.196;6.592;2023-05-21T00:27:55;5.87;;;3.90;;
30127;SDS011;16942;53.196;6.592;2023-05-21T00:30:21;5.07;;;3.83;;
30127;SDS011;16942;53.196;6.592;2023-05-21T00:32:47;4.87;;;3.57;;
30127;SDS011;16942;53.196;6.592;2023-05-21T00:35:13;6.37;;;3.87;;
30127;SDS011;16942;53.196;6.592;2023-05-21T00:37:40;6.60;;;3.80;;
30127;SDS011;16942;53.196;6.592;2023-05-21T00:40:06;5.73;;;3.47;;
30127;SDS011;16942;53.196;6.592;2023-05-21T00:42:33;4.83;;;3.90;;
30127;SDS011;16942;53.196;6.592;2023-05-21T00:45:05;8.40;;;4.17;;
30127;SDS011;16942;53.196;6.592;2023-05-21T00:47:31;5.47;;;3.67;;
30127;SDS011;16942;53.196;6.592;2023-05-21T00:49:57;6.10;;;4.20;;
30127;SDS011;16942;53.196;6.592;2023-05-21T00:52:24;7.30;;;3.70;;
30127;SDS011;16942;53.196;6.592;2023-05-21T00:54:53;4.67;;;4.03;;
30127;SDS011;16942;53.196;6.592;2023-05-21T00:57:20;5.73;;;4.17;;
30127;SDS011;16942;53.196;6.592;2023-05-21T00:59:50;6.60;;;3.80;;
30127;SDS011;16942;53.196;6.592;2023-05-21T01:02:16;8.27;;;3.97;;
30127;SDS011;16942;53.196;6.592;2023-05-21T01:04:43;6.40;;;3.90;;
30127;SDS011;16942;53.196;6.592;2023-05-21T01:07:09;7.03;;;4.43;;
30127;SDS011;16942;53.196;6.592;2023-05-21T01:09:36;4.73;;;3.70;;
30127;SDS011;16942;53.196;6.592;2023-05-21T01:12:02;5.17;;;3.67;;
30127;SDS011;16942;53.196;6.592;2023-05-21T01:14:29;7.00;;;4.13;;
30127;SDS011;16942;53.196;6.592;2023-05-21T01:16:55;5.30;;;4.00;;
30127;SDS011;16942;53.196;6.592;2023-05-21T01:19:21;9.43;;;4.40;;
30127;SDS011;16942;53.196;6.592;2023-05-21T01:21:49;4.60;;;3.67;;
30127;SDS011;16942;53.196;6.592;2023-05-21T01:24:15;5.33;;;4.27;;
30127;SDS011;16942;53.196;6.592;2023-05-21T01:26:42;6.80;;;4.27;;
30127;SDS011;16942;53.196;6.592;2023-05-21T01:29:10;5.10;;;4.37;;
30127;SDS011;16942;53.196;6.592;2023-05-21T01:34:10;5.23;;;3.90;;
30127;SDS011;16942;53.196;6.592;2023-05-21T01:36:40;6.10;;;4.10;;
30127;SDS011;16942;53.196;6.592;2023-05-21T01:39:08;7.80;;;4.50;;
30127;SDS011;16942;53.196;6.592;2023-05-21T01:41:39;7.60;;;4.40;;
30127;SDS011;16942;53.196;6.592;2023-05-21T01:44:07;7.20;;;4.63;;
30127;SDS011;16942;53.196;6.592;2023-05-21T01:46:34;8.93;;;5.77;;
30127;SDS011;16942;53.196;6.592;2023-05-21T01:49:00;6.27;;;4.37;;
30127;SDS011;16942;53.196;6.592;2023-05-21T01:51:27;7.30;;;4.37;;
30127;SDS011;16942;53.196;6.592;2023-05-21T01:53:53;5.67;;;4.37;;
30127;SDS011;16942;53.196;6.592;2023-05-21T01:56:19;8.33;;;4.90;;
30127;SDS011;16942;53.196;6.592;2023-05-21T01:58:50;6.87;;;4.77;;
30127;SDS011;16942;53.196;6.592;2023-05-21T02:01:16;7.73;;;5.20;;
30127;SDS011;16942;53.196;6.592;2023-05-21T02:03:42;7.80;;;4.57;;
30127;SDS011;16942;53.196;6.592;2023-05-21T02:06:08;9.07;;;5.60;;
30127;SDS011;16942;53.196;6.592;2023-05-21T02:08:34;7.70;;;4.80;;
30127;SDS011;16942;53.196;6.592;2023-05-21T02:11:00;5.80;;;4.70;;
30127;SDS011;16942;53.196;6.592;2023-05-21T02:13:26;10.30;;;5.57;;
30127;SDS011;16942;53.196;6.592;2023-05-21T02:15:53;6.60;;;5.00;;
30127;SDS011;16942;53.196;6.592;2023-05-21T02:18:20;10.13;;;5.00;;
30127;SDS011;16942;53.196;6.592;2023-05-21T02:20:46;12.33;;;5.03;;
30127;SDS011;16942;53.196;6.592;2023-05-21T02:23:12;8.17;;;5.77;;
30127;SDS011;16942;53.196;6.592;2023-05-21T02:25:38;7.70;;;5.43;;
30127;SDS011;16942;53.196;6.592;2023-05-21T02:28:04;7.93;;;6.00;;
30127;SDS011;16942;53.196;6.592;2023-05-21T02:30:30;8.07;;;5.40;;
30127;SDS011;16942;53.196;6.592;2023-05-21T02:32:57;7.80;;;4.63;;
30127;SDS011;16942;53.196;6.592;2023-05-21T02:35:23;7.40;;;5.07;;
30127;SDS011;16942;53.196;6.592;2023-05-21T02:37:49;7.53;;;5.57;;
30127;SDS011;16942;53.196;6.592;2023-05-21T02:40:15;6.93;;;4.67;;
30127;SDS011;16942;53.196;6.592;2023-05-21T02:42:41;6.93;;;5.53;;
30127;SDS011;16942;53.196;6.592;2023-05-21T02:45:07;10.70;;;5.07;;
30127;SDS011;16942;53.196;6.592;2023-05-21T02:47:34;14.33;;;6.67;;
30127;SDS011;16942;53.196;6.592;2023-05-21T02:50:00;7.97;;;5.30;;
30127;SDS011;16942;53.196;6.592;2023-05-21T02:52:26;9.50;;;5.07;;
30127;SDS011;16942;53.196;6.592;2023-05-21T02:54:52;12.83;;;5.53;;
30127;SDS011;16942;53.196;6.592;2023-05-21T02:57:18;6.87;;;4.87;;
30127;SDS011;16942;53.196;6.592;2023-05-21T02:59:44;8.27;;;5.50;;
30127;SDS011;16942;53.196;6.592;2023-05-21T03:02:10;11.83;;;5.60;;
30127;SDS011;16942;53.196;6.592;2023-05-21T03:04:36;9.37;;;5.33;;
30127;SDS011;16942;53.196;6.592;2023-05-21T03:07:03;9.40;;;5.33;;
30127;SDS011;16942;53.196;6.592;2023-05-21T03:09:29;11.43;;;6.37;;
30127;SDS011;16942;53.196;6.592;2023-05-21T03:11:55;9.43;;;5.73;;
30127;SDS011;16942;53.196;6.592;2023-05-21T03:14:21;8.87;;;6.00;;
30127;SDS011;16942;53.196;6.592;2023-05-21T03:16:48;12.37;;;6.17;;
30127;SDS011;16942;53.196;6.592;2023-05-21T03:19:15;10.43;;;6.07;;
30127;SDS011;16942;53.196;6.592;2023-05-21T03:21:41;9.80;;;6.20;;
30127;SDS011;16942;53.196;6.592;2023-05-21T03:24:07;9.70;;;5.97;;
30127;SDS011;16942;53.196;6.592;2023-05-21T03:26:33;10.27;;;5.70;;
30127;SDS011;16942;53.196;6.592;2023-05-21T03:28:59;9.17;;;5.60;;
30127;SDS011;16942;53.196;6.592;2023-05-21T03:31:26;10.77;;;6.27;;
30127;SDS011;16942;53.196;6.592;2023-05-21T03:33:52;10.90;;;5.40;;
30127;SDS011;16942;53.196;6.592;2023-05-21T03:36:18;12.27;;;6.53;;
30127;SDS011;16942;53.196;6.592;2023-05-21T03:38:45;9.10;;;5.80;;
30127;SDS011;16942;53.196;6.592;2023-05-21T03:41:11;10.17;;;5.90;;
30127;SDS011;16942;53.196;6.592;2023-05-21T03:43:37;10.53;;;5.53;;
30127;SDS011;16942;53.196;6.592;2023-05-21T03:46:03;11.17;;;6.60;;
30127;SDS011;16942;53.196;6.592;2023-05-21T03:48:29;10.13;;;5.70;;
30127;SDS011;16942;53.196;6.592;2023-05-21T03:50:55;9.13;;;5.30;;
30127;SDS011;16942;53.196;6.592;2023-05-21T03:53:21;10.17;;;6.47;;
30127;SDS011;16942;53.196;6.592;2023-05-21T03:55:47;11.17;;;5.60;;
30127;SDS011;16942;53.196;6.592;2023-05-21T03:58:19;12.10;;;5.73;;
30127;SDS011;16942;53.196;6.592;2023-05-21T04:00:45;9.93;;;5.40;;
30127;SDS011;16942;53.196;6.592;2023-05-21T04:03:12;8.60;;;5.13;;
30127;SDS011;16942;53.196;6.592;2023-05-21T04:05:39;11.27;;;5.33;;
30127;SDS011;16942;53.196;6.592;2023-05-21T04:08:05;9.67;;;4.83;;
30127;SDS011;16942;53.196;6.592;2023-05-21T04:10:31;11.27;;;5.20;;
30127;SDS011;16942;53.196;6.592;2023-05-21T04:12:57;13.03;;;5.10;;
30127;SDS011;16942;53.196;6.592;2023-05-21T04:15:23;12.17;;;5.13;;
30127;SDS011;16942;53.196;6.592;2023-05-21T04:17:49;8.57;;;5.27;;
30127;SDS011;16942;53.196;6.592;2023-05-21T04:20:16;11.50;;;5.03;;
30127;SDS011;16942;53.196;6.592;2023-05-21T04:22:42;7.73;;;5.10;;
30127;SDS011;16942;53.196;6.592;2023-05-21T04:25:08;10.60;;;5.10;;
30127;SDS011;16942;53.196;6.592;2023-05-21T04:27:35;10.17;;;5.90;;
30127;SDS011;16942;53.196;6.592;2023-05-21T04:30:01;8.43;;;5.23;;
30127;SDS011;16942;53.196;6.592;2023-05-21T04:32:28;11.53;;;4.93;;
30127;SDS011;16942;53.196;6.592;2023-05-21T04:34:55;9.77;;;4.63;;
30127;SDS011;16942;53.196;6.592;2023-05-21T04:37:21;11.03;;;5.03;;
30127;SDS011;16942;53.196;6.592;2023-05-21T04:39:51;10.20;;;4.50;;
30127;SDS011;16942;53.196;6.592;2023-05-21T04:42:18;17.17;;;5.17;;
30127;SDS011;16942;53.196;6.592;2023-05-21T04:44:48;10.30;;;5.07;;
30127;SDS011;16942;53.196;6.592;2023-05-21T04:47:14;7.60;;;4.43;;
30127;SDS011;16942;53.196;6.592;2023-05-21T04:49:40;9.70;;;4.20;;
30127;SDS011;16942;53.196;6.592;2023-05-21T04:52:06;10.77;;;4.30;;
30127;SDS011;16942;53.196;6.592;2023-05-21T04:54:32;11.97;;;4.47;;
30127;SDS011;16942;53.196;6.592;2023-05-21T04:57:00;22.37;;;5.03;;
30127;SDS011;16942;53.196;6.592;2023-05-21T04:59:26;10.90;;;4.70;;
30127;SDS011;16942;53.196;6.592;2023-05-21T05:01:52;11.13;;;4.80;;
30127;SDS011;16942;53.196;6.592;2023-05-21T05:04:19;14.00;;;4.20;;
30127;SDS011;16942;53.196;6.592;2023-05-21T05:06:45;15.37;;;4.97;;
30127;SDS011;16942;53.196;6.592;2023-05-21T05:09:11;9.13;;;4.37;;
30127;SDS011;16942;53.196;6.592;2023-05-21T05:11:37;8.37;;;4.13;;
30127;SDS011;16942;53.196;6.592;2023-05-21T05:14:03;9.77;;;4.40;;
30127;SDS011;16942;53.196;6.592;2023-05-21T05:16:29;6.70;;;3.80;;
30127;SDS011;16942;53.196;6.592;2023-05-21T05:18:55;5.93;;;3.90;;
30127;SDS011;16942;53.196;6.592;2023-05-21T05:21:22;7.50;;;3.93;;
30127;SDS011;16942;53.196;6.592;2023-05-21T05:23:48;15.50;;;5.03;;
30127;SDS011;16942;53.196;6.592;2023-05-21T05:26:14;5.87;;;3.87;;
30127;SDS011;16942;53.196;6.592;2023-05-21T05:28:40;7.03;;;4.07;;
30127;SDS011;16942;53.196;6.592;2023-05-21T05:31:06;11.13;;;4.57;;
30127;SDS011;16942;53.196;6.592;2023-05-21T05:33:32;7.47;;;4.07;;
30127;SDS011;16942;53.196;6.592;2023-05-21T05:35:58;11.37;;;4.70;;
30127;SDS011;16942;53.196;6.592;2023-05-21T05:38:24;9.43;;;3.90;;
30127;SDS011;16942;53.196;6.592;2023-05-21T05:40:51;9.10;;;3.60;;
30127;SDS011;16942;53.196;6.592;2023-05-21T05:43:17;7.80;;;3.87;;
30127;SDS011;16942;53.196;6.592;2023-05-21T05:45:43;6.13;;;3.50;;
30127;SDS011;16942;53.196;6.592;2023-05-21T05:48:09;8.50;;;3.57;;
30127;SDS011;16942;53.196;6.592;2023-05-21T05:50:35;7.70;;;3.80;;
30127;SDS011;16942;53.196;6.592;2023-05-21T05:53:01;6.23;;;3.53;;
30127;SDS011;16942;53.196;6.592;2023-05-21T05:55:27;6.30;;;3.63;;
30127;SDS011;16942;53.196;6.592;2023-05-21T05:57:53;6.13;;;4.13;;
30127;SDS011;16942;53.196;6.592;2023-05-21T06:00:19;6.00;;;3.70;;
30127;SDS011;16942;53.196;6.592;2023-05-21T06:02:46;5.97;;;3.27;;
30127;SDS011;16942;53.196;6.592;2023-05-21T06:05:12;6.50;;;4.17;;
30127;SDS011;16942;53.196;6.592;2023-05-21T06:07:38;6.33;;;3.80;;
30127;SDS011;16942;53.196;6.592;2023-05-21T06:10:07;10.20;;;4.47;;
30127;SDS011;16942;53.196;6.592;2023-05-21T06:12:34;9.40;;;3.93;;
30127;SDS011;16942;53.196;6.592;2023-05-21T06:15:00;17.07;;;4.67;;
30127;SDS011;16942;53.196;6.592;2023-05-21T06:17:26;8.53;;;3.77;;
30127;SDS011;16942;53.196;6.592;2023-05-21T06:19:52;8.87;;;4.37;;
30127;SDS011;16942;53.196;6.592;2023-05-21T06:22:18;7.07;;;3.70;;
30127;SDS011;16942;53.196;6.592;2023-05-21T06:24:44;9.00;;;3.97;;
30127;SDS011;16942;53.196;6.592;2023-05-21T06:27:10;7.50;;;4.13;;
30127;SDS011;16942;53.196;6.592;2023-05-21T06:29:36;7.17;;;4.27;;
30127;SDS011;16942;53.196;6.592;2023-05-21T06:32:04;8.27;;;4.03;;
30127;SDS011;16942;53.196;6.592;2023-05-21T06:34:30;6.90;;;4.33;;
30127;SDS011;16942;53.196;6.592;2023-05-21T06:36:56;7.20;;;3.57;;
30127;SDS011;16942;53.196;6.592;2023-05-21T06:39:22;7.07;;;3.83;;
30127;SDS011;16942;53.196;6.592;2023-05-21T06:41:49;13.13;;;4.53;;
30127;SDS011;16942;53.196;6.592;2023-05-21T06:44:15;8.43;;;3.60;;
30127;SDS011;16942;53.196;6.592;2023-05-21T06:46:41;6.63;;;4.10;;
30127;SDS011;16942;53.196;6.592;2023-05-21T06:49:07;9.13;;;3.50;;
30127;SDS011;16942;53.196;6.592;2023-05-21T06:51:33;7.27;;;3.90;;
30127;SDS011;16942;53.196;6.592;2023-05-21T06:53:59;7.27;;;3.70;;
30127;SDS011;16942;53.196;6.592;2023-05-21T06:56:25;7.70;;;4.07;;
30127;SDS011;16942;53.196;6.592;2023-05-21T06:58:51;7.57;;;3.90;;
30127;SDS011;16942;53.196;6.592;2023-05-21T07:01:18;9.00;;;4.03;;
30127;SDS011;16942;53.196;6.592;2023-05-21T07:03:46;10.83;;;3.43;;
30127;SDS011;16942;53.196;6.592;2023-05-21T07:06:12;6.07;;;3.43;;
30127;SDS011;16942;53.196;6.592;2023-05-21T07:08:38;8.67;;;4.00;;
30127;SDS011;16942;53.196;6.592;2023-05-21T07:11:04;9.57;;;4.23;;
30127;SDS011;16942;53.196;6.592;2023-05-21T07:13:30;5.90;;;4.13;;
30127;SDS011;16942;53.196;6.592;2023-05-21T07:15:56;8.07;;;3.70;;
30127;SDS011;16942;53.196;6.592;2023-05-21T07:18:22;6.13;;;3.73;;
30127;SDS011;16942;53.196;6.592;2023-05-21T07:20:48;7.27;;;3.87;;
30127;SDS011;16942;53.196;6.592;2023-05-21T07:23:14;7.80;;;3.53;;
30127;SDS011;16942;53.196;6.592;2023-05-21T07:25:40;9.93;;;3.97;;
30127;SDS011;16942;53.196;6.592;2023-05-21T07:28:06;8.30;;;3.63;;
30127;SDS011;16942;53.196;6.592;2023-05-21T07:30:32;7.50;;;4.20;;
30127;SDS011;16942;53.196;6.592;2023-05-21T07:32:58;7.23;;;3.90;;
30127;SDS011;16942;53.196;6.592;2023-05-21T07:35:25;9.47;;;3.70;;
30127;SDS011;16942;53.196;6.592;2023-05-21T07:37:51;8.50;;;3.80;;
30127;SDS011;16942;53.196;6.592;2023-05-21T07:40:17;10.47;;;3.57;;
30127;SDS011;16942;53.196;6.592;2023-05-21T07:42:43;5.97;;;3.90;;
30127;SDS011;16942;53.196;6.592;2023-05-21T07:45:09;6.13;;;4.03;;
30127;SDS011;16942;53.196;6.592;2023-05-21T07:47:35;6.77;;;3.50;;
30127;SDS011;16942;53.196;6.592;2023-05-21T07:50:01;7.37;;;4.53;;
30127;SDS011;16942;53.196;6.592;2023-05-21T07:52:27;6.93;;;3.50;;
30127;SDS011;16942;53.196;6.592;2023-05-21T07:54:53;7.87;;;3.33;;
30127;SDS011;16942;53.196;6.592;2023-05-21T07:57:19;4.23;;;2.97;;
30127;SDS011;16942;53.196;6.592;2023-05-21T07:59:45;5.63;;;3.47;;
30127;SDS011;16942;53.196;6.592;2023-05-21T08:02:11;5.37;;;3.43;;
30127;SDS011;16942;53.196;6.592;2023-05-21T08:04:37;8.27;;;3.40;;
30127;SDS011;16942;53.196;6.592;2023-05-21T08:07:03;9.07;;;4.10;;
30127;SDS011;16942;53.196;6.592;2023-05-21T08:09:30;8.67;;;4.00;;
30127;SDS011;16942;53.196;6.592;2023-05-21T08:11:56;10.67;;;4.27;;
30127;SDS011;16942;53.196;6.592;2023-05-21T08:14:22;7.83;;;3.60;;
30127;SDS011;16942;53.196;6.592;2023-05-21T08:16:48;9.03;;;3.57;;
30127;SDS011;16942;53.196;6.592;2023-05-21T08:19:14;6.83;;;3.73;;
30127;SDS011;16942;53.196;6.592;2023-05-21T08:21:40;7.23;;;3.37;;
30127;SDS011;16942;53.196;6.592;2023-05-21T08:24:06;10.07;;;3.50;;
30127;SDS011;16942;53.196;6.592;2023-05-21T08:26:32;7.70;;;3.40;;
30127;SDS011;16942;53.196;6.592;2023-05-21T08:28:58;7.60;;;3.70;;
30127;SDS011;16942;53.196;6.592;2023-05-21T08:31:24;6.27;;;3.80;;
30127;SDS011;16942;53.196;6.592;2023-05-21T08:33:51;8.90;;;3.90;;
30127;SDS011;16942;53.196;6.592;2023-05-21T08:36:17;6.30;;;3.87;;
30127;SDS011;16942;53.196;6.592;2023-05-21T08:38:43;5.57;;;3.23;;
30127;SDS011;16942;53.196;6.592;2023-05-21T08:41:10;5.50;;;4.03;;
30127;SDS011;16942;53.196;6.592;2023-05-21T08:43:36;9.17;;;4.07;;
30127;SDS011;16942;53.196;6.592;2023-05-21T08:46:05;5.67;;;3.77;;
30127;SDS011;16942;53.196;6.592;2023-05-21T08:48:31;8.27;;;3.77;;
30127;SDS011;16942;53.196;6.592;2023-05-21T08:50:58;6.47;;;3.70;;
30127;SDS011;16942;53.196;6.592;2023-05-21T08:53:25;6.73;;;3.50;;
30127;SDS011;16942;53.196;6.592;2023-05-21T08:55:51;5.23;;;3.53;;
30127;SDS011;16942;53.196;6.592;2023-05-21T08:58:20;8.10;;;3.50;;
30127;SDS011;16942;53.196;6.592;2023-05-21T09:00:46;6.37;;;4.23;;
30127;SDS011;16942;53.196;6.592;2023-05-21T09:03:13;4.27;;;3.40;;
30127;SDS011;16942;53.196;6.592;2023-05-21T09:05:39;8.10;;;3.40;;
30127;SDS011;16942;53.196;6.592;2023-05-21T09:08:06;10.40;;;3.83;;
30127;SDS011;16942;53.196;6.592;2023-05-21T09:10:37;4.90;;;3.37;;
30127;SDS011;16942;53.196;6.592;2023-05-21T09:13:04;6.00;;;3.43;;
30127;SDS011;16942;53.196;6.592;2023-05-21T09:15:32;4.13;;;3.70;;
30127;SDS011;16942;53.196;6.592;2023-05-21T09:17:58;8.57;;;3.43;;
30127;SDS011;16942;53.196;6.592;2023-05-21T09:20:24;5.67;;;3.50;;
30127;SDS011;16942;53.196;6.592;2023-05-21T09:22:51;6.17;;;3.37;;
30127;SDS011;16942;53.196;6.592;2023-05-21T09:25:24;7.77;;;3.30;;
30127;SDS011;16942;53.196;6.592;2023-05-21T09:27:52;6.63;;;3.10;;
30127;SDS011;16942;53.196;6.592;2023-05-21T09:30:18;6.30;;;3.10;;
30127;SDS011;16942;53.196;6.592;2023-05-21T09:32:44;9.37;;;3.77;;
30127;SDS011;16942;53.196;6.592;2023-05-21T09:35:11;5.63;;;2.90;;
30127;SDS011;16942;53.196;6.592;2023-05-21T09:37:38;5.57;;;3.30;;
30127;SDS011;16942;53.196;6.592;2023-05-21T09:40:14;7.78;;;3.05;;
30127;SDS011;16942;53.196;6.592;2023-05-21T09:42:41;4.57;;;3.00;;
30127;SDS011;16942;53.196;6.592;2023-05-21T09:45:08;10.40;;;3.65;;
30127;SDS011;16942;53.196;6.592;2023-05-21T09:47:41;7.22;;;3.10;;
30127;SDS011;16942;53.196;6.592;2023-05-21T09:50:24;11.27;;;3.58;;
30127;SDS011;16942;53.196;6.592;2023-05-21T09:52:53;7.65;;;3.35;;
30127;SDS011;16942;53.196;6.592;2023-05-21T09:55:24;9.60;;;2.97;;
30127;SDS011;16942;53.196;6.592;2023-05-21T09:57:53;4.88;;;3.22;;
30127;SDS011;16942;53.196;6.592;2023-05-21T10:00:20;9.23;;;4.05;;
30127;SDS011;16942;53.196;6.592;2023-05-21T10:02:47;8.90;;;3.83;;
30127;SDS011;16942;53.196;6.592;2023-05-21T10:05:14;7.75;;;3.60;;
30127;SDS011;16942;53.196;6.592;2023-05-21T10:07:40;5.40;;;3.38;;
30127;SDS011;16942;53.196;6.592;2023-05-21T10:10:07;5.50;;;3.60;;
30127;SDS011;16942;53.196;6.592;2023-05-21T10:12:34;4.82;;;3.25;;
30127;SDS011;16942;53.196;6.592;2023-05-21T10:15:02;6.18;;;3.40;;
30127;SDS011;16942;53.196;6.592;2023-05-21T10:17:29;6.68;;;3.95;;
30127;SDS011;16942;53.196;6.592;2023-05-21T10:19:55;8.82;;;3.50;;
30127;SDS011;16942;53.196;6.592;2023-05-21T10:22:23;6.30;;;3.38;;
30127;SDS011;16942;53.196;6.592;2023-05-21T10:24:50;6.80;;;3.22;;
30127;SDS011;16942;53.196;6.592;2023-05-21T10:27:17;5.57;;;3.28;;
30127;SDS011;16942;53.196;6.592;2023-05-21T10:29:43;9.23;;;3.92;;
30127;SDS011;16942;53.196;6.592;2023-05-21T10:32:14;6.72;;;3.40;;
30127;SDS011;16942;53.196;6.592;2023-05-21T10:34:43;4.28;;;3.00;;
30127;SDS011;16942;53.196;6.592;2023-05-21T10:37:11;9.98;;;3.03;;
30127;SDS011;16942;53.196;6.592;2023-05-21T10:39:38;4.95;;;2.70;;
30127;SDS011;16942;53.196;6.592;2023-05-21T10:44:43;4.60;;;2.80;;
30127;SDS011;16942;53.196;6.592;2023-05-21T10:49:50;10.93;;;3.63;;
30127;SDS011;16942;53.196;6.592;2023-05-21T10:53:03;7.63;;;3.55;;
30127;SDS011;16942;53.196;6.592;2023-05-21T11:00:39;5.22;;;3.45;;
30127;SDS011;16942;53.196;6.592;2023-05-21T11:03:05;8.13;;;3.63;;
30127;SDS011;16942;53.196;6.592;2023-05-21T11:05:38;6.03;;;3.40;;
30127;SDS011;16942;53.196;6.592;2023-05-21T11:08:20;8.05;;;3.53;;
30127;SDS011;16942;53.196;6.592;2023-05-21T11:10:50;9.50;;;4.40;;
30127;SDS011;16942;53.196;6.592;2023-05-21T11:13:17;6.72;;;3.53;;
30127;SDS011;16942;53.196;6.592;2023-05-21T11:29:12;7.95;;;4.60;;
30127;SDS011;16942;53.196;6.592;2023-05-21T11:31:39;10.80;;;4.88;;
30127;SDS011;16942;53.196;6.592;2023-05-21T11:36:36;12.35;;;5.10;;
30127;SDS011;16942;53.196;6.592;2023-05-21T11:39:08;10.23;;;4.32;;
30127;SDS011;16942;53.196;6.592;2023-05-21T11:47:07;8.90;;;5.50;;
30127;SDS011;16942;53.196;6.592;2023-05-21T11:49:33;8.90;;;4.63;;
30127;SDS011;16942;53.196;6.592;2023-05-21T11:52:00;7.90;;;5.10;;
30127;SDS011;16942;53.196;6.592;2023-05-21T11:54:26;10.82;;;4.95;;
30127;SDS011;16942;53.196;6.592;2023-05-21T11:56:57;10.50;;;6.20;;
30127;SDS011;16942;53.196;6.592;2023-05-21T11:59:24;11.75;;;6.35;;
30127;SDS011;16942;53.196;6.592;2023-05-21T12:01:50;8.32;;;5.75;;
30127;SDS011;16942;53.196;6.592;2023-05-21T12:04:16;9.50;;;5.60;;
30127;SDS011;16942;53.196;6.592;2023-05-21T12:06:42;9.18;;;5.35;;
30127;SDS011;16942;53.196;6.592;2023-05-21T12:09:08;12.52;;;5.88;;
30127;SDS011;16942;53.196;6.592;2023-05-21T12:11:36;10.73;;;5.68;;
30127;SDS011;16942;53.196;6.592;2023-05-21T12:14:07;8.38;;;5.35;;
30127;SDS011;16942;53.196;6.592;2023-05-21T12:16:33;12.40;;;6.30;;
30127;SDS011;16942;53.196;6.592;2023-05-21T12:19:00;11.13;;;5.90;;
30127;SDS011;16942;53.196;6.592;2023-05-21T12:21:27;11.95;;;6.05;;
30127;SDS011;16942;53.196;6.592;2023-05-21T12:23:54;11.63;;;6.15;;
30127;SDS011;16942;53.196;6.592;2023-05-21T12:26:20;9.32;;;5.65;;
30127;SDS011;16942;53.196;6.592;2023-05-21T12:28:46;12.43;;;6.68;;
30127;SDS011;16942;53.196;6.592;2023-05-21T12:31:14;9.93;;;6.00;;
30127;SDS011;16942;53.196;6.592;2023-05-21T12:33:43;12.52;;;7.07;;
30127;SDS011;16942;53.196;6.592;2023-05-21T12:36:18;11.48;;;6.93;;
30127;SDS011;16942;53.196;6.592;2023-05-21T12:38:45;11.55;;;6.65;;
30127;SDS011;16942;53.196;6.592;2023-05-21T12:41:11;10.90;;;7.57;;
30127;SDS011;16942;53.196;6.592;2023-05-21T12:43:38;12.18;;;7.30;;
30127;SDS011;16942;53.196;6.592;2023-05-21T12:46:04;15.02;;;6.90;;
30127;SDS011;16942;53.196;6.592;2023-05-21T12:48:30;11.13;;;7.18;;
30127;SDS011;16942;53.196;6.592;2023-05-21T12:50:57;13.07;;;6.75;;
30127;SDS011;16942;53.196;6.592;2023-05-21T12:53:23;10.27;;;6.05;;
30127;SDS011;16942;53.196;6.592;2023-05-21T12:55:49;11.13;;;5.53;;
30127;SDS011;16942;53.196;6.592;2023-05-21T12:58:20;12.02;;;7.30;;
30127;SDS011;16942;53.196;6.592;2023-05-21T13:00:46;11.00;;;6.78;;
30127;SDS011;16942;53.196;6.592;2023-05-21T13:03:12;11.70;;;6.72;;
30127;SDS011;16942;53.196;6.592;2023-05-21T13:05:39;12.90;;;6.90;;
30127;SDS011;16942;53.196;6.592;2023-05-21T13:08:05;12.20;;;6.88;;
30127;SDS011;16942;53.196;6.592;2023-05-21T13:10:33;11.95;;;7.13;;
30127;SDS011;16942;53.196;6.592;2023-05-21T13:12:59;11.15;;;7.45;;
30127;SDS011;16942;53.196;6.592;2023-05-21T13:15:25;14.43;;;7.47;;
30127;SDS011;16942;53.196;6.592;2023-05-21T13:17:51;16.77;;;7.50;;
30127;SDS011;16942;53.196;6.592;2023-05-21T13:20:18;14.75;;;7.90;;
30127;SDS011;16942;53.196;6.592;2023-05-21T13:22:46;28.70;;;8.27;;
30127;SDS011;16942;53.196;6.592;2023-05-21T13:25:22;8.63;;;7.22;;
30127;SDS011;16942;53.196;6.592;2023-05-21T13:27:49;11.13;;;6.78;;
30127;SDS011;16942;53.196;6.592;2023-05-21T13:30:16;14.38;;;7.80;;
30127;SDS011;16942;53.196;6.592;2023-05-21T13:32:42;13.05;;;7.28;;
30127;SDS011;16942;53.196;6.592;2023-05-21T13:35:08;14.90;;;7.68;;
30127;SDS011;16942;53.196;6.592;2023-05-21T13:37:35;8.82;;;6.80;;
30127;SDS011;16942;53.196;6.592;2023-05-21T13:40:05;9.85;;;6.10;;
30127;SDS011;16942;53.196;6.592;2023-05-21T13:42:32;11.93;;;7.57;;
30127;SDS011;16942;53.196;6.592;2023-05-21T13:44:58;13.13;;;8.07;;
30127;SDS011;16942;53.196;6.592;2023-05-21T13:47:24;11.48;;;8.05;;
30127;SDS011;16942;53.196;6.592;2023-05-21T13:49:50;15.10;;;8.45;;
30127;SDS011;16942;53.196;6.592;2023-05-21T13:52:16;11.40;;;7.70;;
30127;SDS011;16942;53.196;6.592;2023-05-21T13:54:42;11.20;;;7.82;;
30127;SDS011;16942;53.196;6.592;2023-05-21T13:57:08;13.35;;;8.73;;
30127;SDS011;16942;53.196;6.592;2023-05-21T13:59:34;16.83;;;9.90;;
30127;SDS011;16942;53.196;6.592;2023-05-21T14:02:00;13.18;;;8.70;;
30127;SDS011;16942;53.196;6.592;2023-05-21T14:04:26;17.00;;;10.63;;
30127;SDS011;16942;53.196;6.592;2023-05-21T14:06:52;15.23;;;8.63;;
30127;SDS011;16942;53.196;6.592;2023-05-21T14:09:18;17.30;;;8.80;;
30127;SDS011;16942;53.196;6.592;2023-05-21T14:11:45;13.00;;;8.60;;
30127;SDS011;16942;53.196;6.592;2023-05-21T14:14:11;10.68;;;8.25;;
30127;SDS011;16942;53.196;6.592;2023-05-21T14:16:42;14.13;;;9.52;;
30127;SDS011;16942;53.196;6.592;2023-05-21T14:19:08;23.08;;;9.38;;
30127;SDS011;16942;53.196;6.592;2023-05-21T14:21:34;17.40;;;9.32;;
30127;SDS011;16942;53.196;6.592;2023-05-21T14:24:00;10.93;;;9.02;;
30127;SDS011;16942;53.196;6.592;2023-05-21T14:26:26;15.60;;;9.50;;
30127;SDS011;16942;53.196;6.592;2023-05-21T14:28:53;15.82;;;9.82;;
30127;SDS011;16942;53.196;6.592;2023-05-21T14:31:19;16.58;;;10.60;;
30127;SDS011;16942;53.196;6.592;2023-05-21T14:33:49;14.38;;;10.50;;
30127;SDS011;16942;53.196;6.592;2023-05-21T14:36:15;14.00;;;10.50;;
30127;SDS011;16942;53.196;6.592;2023-05-21T14:38:41;14.52;;;11.15;;
30127;SDS011;16942;53.196;6.592;2023-05-21T14:41:07;14.23;;;8.73;;
30127;SDS011;16942;53.196;6.592;2023-05-21T14:43:33;15.90;;;11.10;;
30127;SDS011;16942;53.196;6.592;2023-05-21T14:46:00;14.35;;;10.43;;
30127;SDS011;16942;53.196;6.592;2023-05-21T14:48:26;14.50;;;11.48;;
30127;SDS011;16942;53.196;6.592;2023-05-21T14:50:52;15.57;;;10.27;;
30127;SDS011;16942;53.196;6.592;2023-05-21T14:53:18;15.45;;;11.13;;
30127;SDS011;16942;53.196;6.592;2023-05-21T14:55:45;15.80;;;10.60;;
30127;SDS011;16942;53.196;6.592;2023-05-21T14:58:11;33.70;;;15.38;;
30127;SDS011;16942;53.196;6.592;2023-05-21T15:00:37;30.20;;;14.57;;
30127;SDS011;16942;53.196;6.592;2023-05-21T15:03:03;62.90;;;20.23;;
30127;SDS011;16942;53.196;6.592;2023-05-21T15:05:29;32.10;;;15.40;;
30127;SDS011;16942;53.196;6.592;2023-05-21T15:07:56;27.63;;;13.77;;
30127;SDS011;16942;53.196;6.592;2023-05-21T15:10:23;20.35;;;13.40;;
30127;SDS011;16942;53.196;6.592;2023-05-21T15:12:49;19.85;;;13.10;;
30127;SDS011;16942;53.196;6.592;2023-05-21T15:15:15;33.55;;;16.67;;